PWSweather.com
Personal Weather Stations
Station Observations
KOHAVON11
Long Road Station, Avon, OH 44011

Long Road StationAvon, OH 44011

Lat: 41.437, Lon: -82.0477

Elevation: 686

Station Type: Davis Vantage Pro2

http://www.avon-weather.com

High Low Average
Temperature 54.4°F12.4°C 32.4°F0.2°C 45.2°F7.3°C
Dew Point 36.2°F2.3°C 25.6°F-3.6°C 30.7°F-0.7°C
Winds 19.0 mph 30.6 kmh Calm Calm 5.0 mph ENE8.0 kmh ENE
Wind Gusts 25.0 mph40.2 kmh -- 10.0 mph16.1 kmh
Humidity 89% 38% 60%
Pressure 30.41 in1029.8 mb 30.26 in1024.7 mb -
Precipitation 0.00 in0.0 mm - -
Hour Temp Dew Point Humidity Winds Wind Gusts Pressure Precip Precip Rate Daily Precip Total
12:04 AM 34.9°F1.6°C 28.7°F-1.8°C 78% Calm Calm -- 30.41 in1029.8 mb 0.00 in0.0 mm 0.00 in0.0 mm 0.00 in0.0 mm
12:09 AM 34.8°F1.6°C 28.6°F-1.9°C 78% Calm Calm -- 30.41 in1029.8 mb 0.00 in0.0 mm 0.00 in0.0 mm 0.00 in0.0 mm
12:14 AM 34.7°F1.5°C 28.8°F-1.8°C 79% Calm Calm -- 30.41 in1029.8 mb 0.00 in0.0 mm 0.00 in0.0 mm 0.00 in0.0 mm
12:19 AM 34.6°F1.4°C 28.7°F-1.8°C 79% Calm Calm -- 30.41 in1029.8 mb 0.00 in0.0 mm 0.00 in0.0 mm 0.00 in0.0 mm
12:24 AM 34.5°F1.4°C 28.6°F-1.9°C 79% Calm Calm -- 30.41 in1029.8 mb 0.00 in0.0 mm 0.00 in0.0 mm 0.00 in0.0 mm
12:29 AM 34.6°F1.4°C 29.0°F-1.7°C 80% Calm Calm -- 30.41 in1029.8 mb 0.00 in0.0 mm 0.00 in0.0 mm 0.00 in0.0 mm
12:34 AM 34.7°F1.5°C 29.4°F-1.4°C 81% Calm Calm -- 30.41 in1029.8 mb 0.00 in0.0 mm 0.00 in0.0 mm 0.00 in0.0 mm
12:39 AM 34.6°F1.4°C 29.4°F-1.4°C 81% Calm Calm -- 30.41 in1029.8 mb 0.00 in0.0 mm 0.00 in0.0 mm 0.00 in0.0 mm
12:44 AM 34.6°F1.4°C 29.4°F-1.4°C 81% Calm Calm -- 30.41 in1029.8 mb 0.00 in0.0 mm 0.00 in0.0 mm 0.00 in0.0 mm
12:49 AM 34.5°F1.4°C 29.6°F-1.3°C 82% Calm Calm -- 30.41 in1029.8 mb 0.00 in0.0 mm 0.00 in0.0 mm 0.00 in0.0 mm
12:54 AM 34.5°F1.4°C 29.6°F-1.3°C 82% Calm Calm -- 30.40 in1029.5 mb 0.00 in0.0 mm 0.00 in0.0 mm 0.00 in0.0 mm
12:59 AM 34.6°F1.4°C 29.7°F-1.3°C 82% Calm Calm -- 30.41 in1029.8 mb 0.00 in0.0 mm 0.00 in0.0 mm 0.00 in0.0 mm
01:04 AM 34.6°F1.4°C 30.0°F-1.1°C 83% Calm Calm -- 30.41 in1029.8 mb 0.00 in0.0 mm 0.00 in0.0 mm 0.00 in0.0 mm
01:09 AM 34.5°F1.4°C 29.9°F-1.2°C 83% Calm Calm -- 30.40 in1029.5 mb 0.00 in0.0 mm 0.00 in0.0 mm 0.00 in0.0 mm
01:14 AM 34.4°F1.3°C 29.8°F-1.2°C 83% Calm Calm -- 30.40 in1029.5 mb 0.00 in0.0 mm 0.00 in0.0 mm 0.00 in0.0 mm
01:19 AM 34.3°F1.3°C 29.7°F-1.3°C 83% Calm Calm -- 30.40 in1029.5 mb 0.00 in0.0 mm 0.00 in0.0 mm 0.00 in0.0 mm
01:24 AM 34.2°F1.2°C 29.6°F-1.3°C 83% Calm Calm -- 30.40 in1029.5 mb 0.00 in0.0 mm 0.00 in0.0 mm 0.00 in0.0 mm
01:29 AM 34.0°F1.1°C 29.4°F-1.4°C 83% Calm Calm -- 30.40 in1029.5 mb 0.00 in0.0 mm 0.00 in0.0 mm 0.00 in0.0 mm
01:34 AM 34.0°F1.1°C 29.7°F-1.3°C 84% Calm Calm -- 30.40 in1029.5 mb 0.00 in0.0 mm 0.00 in0.0 mm 0.00 in0.0 mm
01:39 AM 33.9°F1.1°C 29.6°F-1.3°C 84% Calm Calm -- 30.40 in1029.5 mb 0.00 in0.0 mm 0.00 in0.0 mm 0.00 in0.0 mm
01:44 AM 33.8°F1.0°C 29.5°F-1.4°C 84% Calm Calm -- 30.40 in1029.5 mb 0.00 in0.0 mm 0.00 in0.0 mm 0.00 in0.0 mm
01:49 AM 33.8°F1.0°C 29.5°F-1.4°C 84% Calm Calm -- 30.40 in1029.5 mb 0.00 in0.0 mm 0.00 in0.0 mm 0.00 in0.0 mm
01:54 AM 33.7°F0.9°C 29.4°F-1.4°C 84% Calm Calm -- 30.39 in1029.1 mb 0.00 in0.0 mm 0.00 in0.0 mm 0.00 in0.0 mm
01:59 AM 33.8°F1.0°C 29.5°F-1.4°C 84% Calm Calm -- 30.39 in1029.1 mb 0.00 in0.0 mm 0.00 in0.0 mm 0.00 in0.0 mm
02:04 AM 33.8°F1.0°C 29.5°F-1.4°C 84% Calm Calm -- 30.39 in1029.1 mb 0.00 in0.0 mm 0.00 in0.0 mm 0.00 in0.0 mm
02:09 AM 33.8°F1.0°C 29.8°F-1.2°C 85% Calm Calm -- 30.39 in1029.1 mb 0.00 in0.0 mm 0.00 in0.0 mm 0.00 in0.0 mm
02:14 AM 34.0°F1.1°C 30.0°F-1.1°C 85% Calm Calm -- 30.39 in1029.1 mb 0.00 in0.0 mm 0.00 in0.0 mm 0.00 in0.0 mm
02:19 AM 34.1°F1.2°C 30.1°F-1.1°C 85% Calm Calm -- 30.39 in1029.1 mb 0.00 in0.0 mm 0.00 in0.0 mm 0.00 in0.0 mm
02:24 AM 34.3°F1.3°C 30.3°F-0.9°C 85% Calm Calm -- 30.39 in1029.1 mb 0.00 in0.0 mm 0.00 in0.0 mm 0.00 in0.0 mm
02:29 AM 34.6°F1.4°C 30.9°F-0.6°C 86% Calm Calm -- 30.39 in1029.1 mb 0.00 in0.0 mm 0.00 in0.0 mm 0.00 in0.0 mm
02:34 AM 34.7°F1.5°C 31.0°F-0.6°C 86% Calm Calm -- 30.39 in1029.1 mb 0.00 in0.0 mm 0.00 in0.0 mm 0.00 in0.0 mm
02:39 AM 34.8°F1.6°C 31.1°F-0.5°C 86% Calm Calm -- 30.39 in1029.1 mb 0.00 in0.0 mm 0.00 in0.0 mm 0.00 in0.0 mm
02:44 AM 34.8°F1.6°C 31.1°F-0.5°C 86% Calm Calm -- 30.38 in1028.8 mb 0.00 in0.0 mm 0.00 in0.0 mm 0.00 in0.0 mm
02:49 AM 34.9°F1.6°C 31.2°F-0.4°C 86% Calm Calm -- 30.39 in1029.1 mb 0.00 in0.0 mm 0.00 in0.0 mm 0.00 in0.0 mm
02:54 AM 34.9°F1.6°C 31.2°F-0.4°C 86% Calm Calm -- 30.39 in1029.1 mb 0.00 in0.0 mm 0.00 in0.0 mm 0.00 in0.0 mm
02:59 AM 35.0°F1.7°C 31.3°F-0.4°C 86% Calm Calm -- 30.39 in1029.1 mb 0.00 in0.0 mm 0.00 in0.0 mm 0.00 in0.0 mm
03:04 AM 35.0°F1.7°C 31.3°F-0.4°C 86% Calm Calm -- 30.39 in1029.1 mb 0.00 in0.0 mm 0.00 in0.0 mm 0.00 in0.0 mm
03:09 AM 35.1°F1.7°C 31.3°F-0.4°C 86% Calm Calm -- 30.39 in1029.1 mb 0.00 in0.0 mm 0.00 in0.0 mm 0.00 in0.0 mm
03:14 AM 35.1°F1.7°C 31.3°F-0.4°C 86% Calm Calm -- 30.39 in1029.1 mb 0.00 in0.0 mm 0.00 in0.0 mm 0.00 in0.0 mm
03:19 AM 35.1°F1.7°C 31.3°F-0.4°C 86% Calm Calm -- 30.38 in1028.8 mb 0.00 in0.0 mm 0.00 in0.0 mm 0.00 in0.0 mm
03:24 AM 35.2°F1.8°C 31.4°F-0.3°C 86% Calm Calm -- 30.38 in1028.8 mb 0.00 in0.0 mm 0.00 in0.0 mm 0.00 in0.0 mm
03:29 AM 35.2°F1.8°C 31.4°F-0.3°C 86% Calm Calm -- 30.38 in1028.8 mb 0.00 in0.0 mm 0.00 in0.0 mm 0.00 in0.0 mm
03:34 AM 35.2°F1.8°C 31.4°F-0.3°C 86% Calm Calm -- 30.38 in1028.8 mb 0.00 in0.0 mm 0.00 in0.0 mm 0.00 in0.0 mm
03:39 AM 35.2°F1.8°C 31.4°F-0.3°C 86% Calm Calm -- 30.38 in1028.8 mb 0.00 in0.0 mm 0.00 in0.0 mm 0.00 in0.0 mm
03:44 AM 35.2°F1.8°C 31.4°F-0.3°C 86% Calm Calm -- 30.38 in1028.8 mb 0.00 in0.0 mm 0.00 in0.0 mm 0.00 in0.0 mm
03:49 AM 35.2°F1.8°C 31.4°F-0.3°C 86% Calm Calm -- 30.38 in1028.8 mb 0.00 in0.0 mm 0.00 in0.0 mm 0.00 in0.0 mm
03:54 AM 35.2°F1.8°C 31.4°F-0.3°C 86% Calm Calm -- 30.38 in1028.8 mb 0.00 in0.0 mm 0.00 in0.0 mm 0.00 in0.0 mm
03:59 AM 35.1°F1.7°C 31.6°F-0.2°C 87% Calm Calm -- 30.38 in1028.8 mb 0.00 in0.0 mm 0.00 in0.0 mm 0.00 in0.0 mm
04:04 AM 35.0°F1.7°C 31.3°F-0.4°C 86% Calm Calm -- 30.38 in1028.8 mb 0.00 in0.0 mm 0.00 in0.0 mm 0.00 in0.0 mm
04:09 AM 34.9°F1.6°C 31.2°F-0.4°C 86% Calm Calm -- 30.38 in1028.8 mb 0.00 in0.0 mm 0.00 in0.0 mm 0.00 in0.0 mm
04:14 AM 34.8°F1.6°C 31.1°F-0.5°C 86% Calm Calm -- 30.38 in1028.8 mb 0.00 in0.0 mm 0.00 in0.0 mm 0.00 in0.0 mm
04:19 AM 34.7°F1.5°C 31.0°F-0.6°C 86% Calm Calm -- 30.38 in1028.8 mb 0.00 in0.0 mm 0.00 in0.0 mm 0.00 in0.0 mm
04:24 AM 34.6°F1.4°C 30.9°F-0.6°C 86% Calm Calm -- 30.38 in1028.8 mb 0.00 in0.0 mm 0.00 in0.0 mm 0.00 in0.0 mm
04:29 AM 34.3°F1.3°C 30.6°F-0.8°C 86% Calm Calm -- 30.38 in1028.8 mb 0.00 in0.0 mm 0.00 in0.0 mm 0.00 in0.0 mm
04:34 AM 34.1°F1.2°C 30.4°F-0.9°C 86% Calm Calm -- 30.37 in1028.4 mb 0.00 in0.0 mm 0.00 in0.0 mm 0.00 in0.0 mm
04:39 AM 34.0°F1.1°C 30.3°F-0.9°C 86% Calm Calm -- 30.37 in1028.4 mb 0.00 in0.0 mm 0.00 in0.0 mm 0.00 in0.0 mm
04:44 AM 33.8°F1.0°C 30.1°F-1.1°C 86% Calm Calm -- 30.37 in1028.4 mb 0.00 in0.0 mm 0.00 in0.0 mm 0.00 in0.0 mm
04:49 AM 33.6°F0.9°C 29.9°F-1.2°C 86% Calm Calm -- 30.37 in1028.4 mb 0.00 in0.0 mm 0.00 in0.0 mm 0.00 in0.0 mm
04:54 AM 33.6°F0.9°C 29.9°F-1.2°C 86% Calm Calm -- 30.37 in1028.4 mb 0.00 in0.0 mm 0.00 in0.0 mm 0.00 in0.0 mm
04:59 AM 33.7°F0.9°C 30.3°F-0.9°C 87% Calm Calm -- 30.37 in1028.4 mb 0.00 in0.0 mm 0.00 in0.0 mm 0.00 in0.0 mm
05:04 AM 33.8°F1.0°C 30.4°F-0.9°C 87% Calm Calm -- 30.37 in1028.4 mb 0.00 in0.0 mm 0.00 in0.0 mm 0.00 in0.0 mm
05:09 AM 33.8°F1.0°C 30.4°F-0.9°C 87% Calm Calm -- 30.38 in1028.8 mb 0.00 in0.0 mm 0.00 in0.0 mm 0.00 in0.0 mm
05:14 AM 33.7°F0.9°C 30.3°F-0.9°C 87% Calm Calm -- 30.38 in1028.8 mb 0.00 in0.0 mm 0.00 in0.0 mm 0.00 in0.0 mm
05:19 AM 33.6°F0.9°C 29.9°F-1.2°C 86% Calm Calm -- 30.38 in1028.8 mb 0.00 in0.0 mm 0.00 in0.0 mm 0.00 in0.0 mm
05:24 AM 33.4°F0.8°C 29.7°F-1.3°C 86% Calm Calm -- 30.38 in1028.8 mb 0.00 in0.0 mm 0.00 in0.0 mm 0.00 in0.0 mm
05:29 AM 33.3°F0.7°C 29.6°F-1.3°C 86% Calm Calm -- 30.38 in1028.8 mb 0.00 in0.0 mm 0.00 in0.0 mm 0.00 in0.0 mm
05:34 AM 33.2°F0.7°C 29.8°F-1.2°C 87% Calm Calm -- 30.38 in1028.8 mb 0.00 in0.0 mm 0.00 in0.0 mm 0.00 in0.0 mm
05:39 AM 33.0°F0.6°C 29.3°F-1.5°C 86% Calm Calm -- 30.38 in1028.8 mb 0.00 in0.0 mm 0.00 in0.0 mm 0.00 in0.0 mm
05:44 AM 32.9°F0.5°C 29.5°F-1.4°C 87% Calm Calm -- 30.38 in1028.8 mb 0.00 in0.0 mm 0.00 in0.0 mm 0.00 in0.0 mm
05:49 AM 32.8°F0.4°C 29.4°F-1.4°C 87% Calm Calm -- 30.38 in1028.8 mb 0.00 in0.0 mm 0.00 in0.0 mm 0.00 in0.0 mm
05:54 AM 32.8°F0.4°C 29.1°F-1.6°C 86% Calm Calm -- 30.38 in1028.8 mb 0.00 in0.0 mm 0.00 in0.0 mm 0.00 in0.0 mm
05:59 AM 32.6°F0.3°C 28.9°F-1.7°C 86% Calm Calm -- 30.38 in1028.8 mb 0.00 in0.0 mm 0.00 in0.0 mm 0.00 in0.0 mm
06:04 AM 32.5°F0.3°C 28.8°F-1.8°C 86% Calm Calm -- 30.38 in1028.8 mb 0.00 in0.0 mm 0.00 in0.0 mm 0.00 in0.0 mm
06:09 AM 32.4°F0.2°C 29.0°F-1.7°C 87% Calm Calm 1.0 mph1.6 kmh 30.38 in1028.8 mb 0.00 in0.0 mm 0.00 in0.0 mm 0.00 in0.0 mm
06:14 AM 32.4°F0.2°C 29.0°F-1.7°C 87% Calm Calm 1.0 mph1.6 kmh 30.38 in1028.8 mb 0.00 in0.0 mm 0.00 in0.0 mm 0.00 in0.0 mm
06:19 AM 32.6°F0.3°C 29.2°F-1.6°C 87% Calm Calm 1.0 mph1.6 kmh 30.38 in1028.8 mb 0.00 in0.0 mm 0.00 in0.0 mm 0.00 in0.0 mm
06:24 AM 32.6°F0.3°C 29.2°F-1.6°C 87% Calm Calm -- 30.39 in1029.1 mb 0.00 in0.0 mm 0.00 in0.0 mm 0.00 in0.0 mm
06:29 AM 32.8°F0.4°C 29.4°F-1.4°C 87% Calm Calm -- 30.39 in1029.1 mb 0.00 in0.0 mm 0.00 in0.0 mm 0.00 in0.0 mm
06:34 AM 33.0°F0.6°C 29.6°F-1.3°C 87% Calm Calm -- 30.39 in1029.1 mb 0.00 in0.0 mm 0.00 in0.0 mm 0.00 in0.0 mm
06:39 AM 33.1°F0.6°C 29.7°F-1.3°C 87% Calm Calm 1.0 mph1.6 kmh 30.39 in1029.1 mb 0.00 in0.0 mm 0.00 in0.0 mm 0.00 in0.0 mm
06:44 AM 33.1°F0.6°C 29.7°F-1.3°C 87% Calm Calm -- 30.40 in1029.5 mb 0.00 in0.0 mm 0.00 in0.0 mm 0.00 in0.0 mm
06:49 AM 33.1°F0.6°C 29.7°F-1.3°C 87% Calm Calm -- 30.40 in1029.5 mb 0.00 in0.0 mm 0.00 in0.0 mm 0.00 in0.0 mm
06:54 AM 33.0°F0.6°C 29.6°F-1.3°C 87% Calm Calm -- 30.41 in1029.8 mb 0.00 in0.0 mm 0.00 in0.0 mm 0.00 in0.0 mm
06:59 AM 32.9°F0.5°C 29.5°F-1.4°C 87% Calm Calm -- 30.41 in1029.8 mb 0.00 in0.0 mm 0.00 in0.0 mm 0.00 in0.0 mm
07:04 AM 32.9°F0.5°C 29.5°F-1.4°C 87% Calm Calm -- 30.41 in1029.8 mb 0.00 in0.0 mm 0.00 in0.0 mm 0.00 in0.0 mm
07:09 AM 32.8°F0.4°C 29.4°F-1.4°C 87% Calm Calm -- 30.41 in1029.8 mb 0.00 in0.0 mm 0.00 in0.0 mm 0.00 in0.0 mm
07:14 AM 32.6°F0.3°C 29.2°F-1.6°C 87% Calm Calm 1.0 mph1.6 kmh 30.41 in1029.8 mb 0.00 in0.0 mm 0.00 in0.0 mm 0.00 in0.0 mm
07:19 AM 32.5°F0.3°C 29.1°F-1.6°C 87% 2.0 mph ENE3.2 kmh ENE 2.0 mph3.2 kmh 30.41 in1029.8 mb 0.00 in0.0 mm 0.00 in0.0 mm 0.00 in0.0 mm
07:24 AM 32.5°F0.3°C 29.1°F-1.6°C 87% 3.0 mph NE4.8 kmh NE 4.0 mph6.4 kmh 30.41 in1029.8 mb 0.00 in0.0 mm 0.00 in0.0 mm 0.00 in0.0 mm
07:29 AM 32.8°F0.4°C 29.7°F-1.3°C 88% 2.0 mph NE3.2 kmh NE 6.0 mph9.7 kmh 30.41 in1029.8 mb 0.00 in0.0 mm 0.00 in0.0 mm 0.00 in0.0 mm
07:34 AM 34.2°F1.2°C 31.0°F-0.6°C 88% 4.0 mph NE6.4 kmh NE 6.0 mph9.7 kmh 30.40 in1029.5 mb 0.00 in0.0 mm 0.00 in0.0 mm 0.00 in0.0 mm
07:39 AM 36.1°F2.3°C 33.2°F0.7°C 89% 4.0 mph NE6.4 kmh NE 8.0 mph12.9 kmh 30.41 in1029.8 mb 0.00 in0.0 mm 0.00 in0.0 mm 0.00 in0.0 mm
07:44 AM 37.5°F3.1°C 34.6°F1.4°C 89% 4.0 mph NE6.4 kmh NE 8.0 mph12.9 kmh 30.40 in1029.5 mb 0.00 in0.0 mm 0.00 in0.0 mm 0.00 in0.0 mm
07:49 AM 38.7°F3.7°C 35.2°F1.8°C 87% 5.0 mph NE8.0 kmh NE 8.0 mph12.9 kmh 30.40 in1029.5 mb 0.00 in0.0 mm 0.00 in0.0 mm 0.00 in0.0 mm
07:54 AM 39.6°F4.2°C 35.5°F1.9°C 85% 4.0 mph ENE6.4 kmh ENE 9.0 mph14.5 kmh 30.40 in1029.5 mb 0.00 in0.0 mm 0.00 in0.0 mm 0.00 in0.0 mm
07:59 AM 40.2°F4.6°C 35.7°F2.1°C 84% 7.0 mph ENE11.3 kmh ENE 9.0 mph14.5 kmh 30.40 in1029.5 mb 0.00 in0.0 mm 0.00 in0.0 mm 0.00 in0.0 mm
08:04 AM 40.9°F4.9°C 35.8°F2.1°C 82% 5.0 mph ENE8.0 kmh ENE 9.0 mph14.5 kmh 30.40 in1029.5 mb 0.00 in0.0 mm 0.00 in0.0 mm 0.00 in0.0 mm
08:09 AM 41.6°F5.3°C 35.8°F2.1°C 80% 4.0 mph NE6.4 kmh NE 9.0 mph14.5 kmh 30.40 in1029.5 mb 0.00 in0.0 mm 0.00 in0.0 mm 0.00 in0.0 mm
08:14 AM 42.3°F5.7°C 35.5°F1.9°C 77% 4.0 mph NE6.4 kmh NE 9.0 mph14.5 kmh 30.40 in1029.5 mb 0.00 in0.0 mm 0.00 in0.0 mm 0.00 in0.0 mm
08:19 AM 42.8°F6.0°C 35.3°F1.8°C 75% 5.0 mph NE8.0 kmh NE 9.0 mph14.5 kmh 30.40 in1029.5 mb 0.00 in0.0 mm 0.00 in0.0 mm 0.00 in0.0 mm
08:24 AM 43.5°F6.4°C 34.6°F1.4°C 71% 5.0 mph ENE8.0 kmh ENE 9.0 mph14.5 kmh 30.40 in1029.5 mb 0.00 in0.0 mm 0.00 in0.0 mm 0.00 in0.0 mm
08:29 AM 44.0°F6.7°C 34.0°F1.1°C 68% 5.0 mph ENE8.0 kmh ENE 9.0 mph14.5 kmh 30.40 in1029.5 mb 0.00 in0.0 mm 0.00 in0.0 mm 0.00 in0.0 mm
08:34 AM 44.6°F7.0°C 34.5°F1.4°C 68% 5.0 mph NE8.0 kmh NE 9.0 mph14.5 kmh 30.40 in1029.5 mb 0.00 in0.0 mm 0.00 in0.0 mm 0.00 in0.0 mm
08:39 AM 45.3°F7.4°C 34.8°F1.6°C 67% 6.0 mph NNE9.7 kmh NNE 9.0 mph14.5 kmh 30.40 in1029.5 mb 0.00 in0.0 mm 0.00 in0.0 mm 0.00 in0.0 mm
08:44 AM 45.8°F7.7°C 34.9°F1.6°C 66% 5.0 mph NE8.0 kmh NE 9.0 mph14.5 kmh 30.40 in1029.5 mb 0.00 in0.0 mm 0.00 in0.0 mm 0.00 in0.0 mm
08:49 AM 46.2°F7.9°C 33.7°F0.9°C 62% 5.0 mph ENE8.0 kmh ENE 10.0 mph16.1 kmh 30.40 in1029.5 mb 0.00 in0.0 mm 0.00 in0.0 mm 0.00 in0.0 mm
08:54 AM 46.6°F8.1°C 33.6°F0.9°C 61% 7.0 mph E11.3 kmh E 10.0 mph16.1 kmh 30.40 in1029.5 mb 0.00 in0.0 mm 0.00 in0.0 mm 0.00 in0.0 mm
08:59 AM 47.0°F8.3°C 34.0°F1.1°C 61% 9.0 mph NE14.5 kmh NE 11.0 mph17.7 kmh 30.40 in1029.5 mb 0.00 in0.0 mm 0.00 in0.0 mm 0.00 in0.0 mm
09:04 AM 47.2°F8.4°C 32.4°F0.2°C 57% 8.0 mph ENE12.9 kmh ENE 13.0 mph20.9 kmh 30.40 in1029.5 mb 0.00 in0.0 mm 0.00 in0.0 mm 0.00 in0.0 mm
09:09 AM 47.6°F8.7°C 33.7°F0.9°C 59% 10.0 mph NE16.1 kmh NE 13.0 mph20.9 kmh 30.40 in1029.5 mb 0.00 in0.0 mm 0.00 in0.0 mm 0.00 in0.0 mm
09:14 AM 47.7°F8.7°C 32.4°F0.2°C 56% 4.0 mph ENE6.4 kmh ENE 13.0 mph20.9 kmh 30.40 in1029.5 mb 0.00 in0.0 mm 0.00 in0.0 mm 0.00 in0.0 mm
09:19 AM 48.3°F9.1°C 32.5°F0.3°C 55% 10.0 mph ENE16.1 kmh ENE 13.0 mph20.9 kmh 30.40 in1029.5 mb 0.00 in0.0 mm 0.00 in0.0 mm 0.00 in0.0 mm
09:24 AM 48.6°F9.2°C 32.8°F0.4°C 55% 5.0 mph NE8.0 kmh NE 11.0 mph17.7 kmh 30.40 in1029.5 mb 0.00 in0.0 mm 0.00 in0.0 mm 0.00 in0.0 mm
09:29 AM 48.6°F9.2°C 32.3°F0.2°C 54% 10.0 mph ENE16.1 kmh ENE 11.0 mph17.7 kmh 30.40 in1029.5 mb 0.00 in0.0 mm 0.00 in0.0 mm 0.00 in0.0 mm
09:34 AM 48.6°F9.2°C 32.3°F0.2°C 54% 7.0 mph NE11.3 kmh NE 12.0 mph19.3 kmh 30.40 in1029.5 mb 0.00 in0.0 mm 0.00 in0.0 mm 0.00 in0.0 mm
09:39 AM 49.4°F9.7°C 33.5°F0.8°C 55% 9.0 mph NE14.5 kmh NE 13.0 mph20.9 kmh 30.40 in1029.5 mb 0.00 in0.0 mm 0.00 in0.0 mm 0.00 in0.0 mm
09:44 AM 49.2°F9.6°C 32.4°F0.2°C 53% 5.0 mph NE8.0 kmh NE 14.0 mph22.5 kmh 30.40 in1029.5 mb 0.00 in0.0 mm 0.00 in0.0 mm 0.00 in0.0 mm
09:49 AM 49.1°F9.5°C 33.3°F0.7°C 55% 4.0 mph NE6.4 kmh NE 14.0 mph22.5 kmh 30.40 in1029.5 mb 0.00 in0.0 mm 0.00 in0.0 mm 0.00 in0.0 mm
09:54 AM 49.1°F9.5°C 34.2°F1.2°C 57% 8.0 mph ENE12.9 kmh ENE 14.0 mph22.5 kmh 30.40 in1029.5 mb 0.00 in0.0 mm 0.00 in0.0 mm 0.00 in0.0 mm
09:59 AM 49.2°F9.6°C 34.3°F1.3°C 57% 8.0 mph ENE12.9 kmh ENE 14.0 mph22.5 kmh 30.40 in1029.5 mb 0.00 in0.0 mm 0.00 in0.0 mm 0.00 in0.0 mm
10:04 AM 48.6°F9.2°C 34.2°F1.2°C 58% 8.0 mph NE12.9 kmh NE 12.0 mph19.3 kmh 30.40 in1029.5 mb 0.00 in0.0 mm 0.00 in0.0 mm 0.00 in0.0 mm
10:09 AM 48.1°F8.9°C 33.7°F0.9°C 58% 9.0 mph NE14.5 kmh NE 12.0 mph19.3 kmh 30.40 in1029.5 mb 0.00 in0.0 mm 0.00 in0.0 mm 0.00 in0.0 mm
10:14 AM 47.7°F8.7°C 33.3°F0.7°C 58% 8.0 mph NE12.9 kmh NE 12.0 mph19.3 kmh 30.40 in1029.5 mb 0.00 in0.0 mm 0.00 in0.0 mm 0.00 in0.0 mm
10:19 AM 47.4°F8.6°C 32.6°F0.3°C 57% 2.0 mph NE3.2 kmh NE 12.0 mph19.3 kmh 30.40 in1029.5 mb 0.00 in0.0 mm 0.00 in0.0 mm 0.00 in0.0 mm
10:24 AM 47.6°F8.7°C 33.2°F0.7°C 58% 5.0 mph NE8.0 kmh NE 11.0 mph17.7 kmh 30.40 in1029.5 mb 0.00 in0.0 mm 0.00 in0.0 mm 0.00 in0.0 mm
10:29 AM 47.6°F8.7°C 33.7°F0.9°C 59% 4.0 mph NNE6.4 kmh NNE 11.0 mph17.7 kmh 30.40 in1029.5 mb 0.00 in0.0 mm 0.00 in0.0 mm 0.00 in0.0 mm
10:34 AM 48.0°F8.9°C 33.6°F0.9°C 58% 5.0 mph ENE8.0 kmh ENE 10.0 mph16.1 kmh 30.40 in1029.5 mb 0.00 in0.0 mm 0.00 in0.0 mm 0.00 in0.0 mm
10:39 AM 48.2°F9.0°C 32.9°F0.5°C 56% 7.0 mph ENE11.3 kmh ENE 10.0 mph16.1 kmh 30.40 in1029.5 mb 0.00 in0.0 mm 0.00 in0.0 mm 0.00 in0.0 mm
10:44 AM 49.5°F9.7°C 34.6°F1.4°C 57% 6.0 mph E9.7 kmh E 10.0 mph16.1 kmh 30.40 in1029.5 mb 0.00 in0.0 mm 0.00 in0.0 mm 0.00 in0.0 mm
10:49 AM 50.5°F10.3°C 34.1°F1.2°C 54% 10.0 mph NE16.1 kmh NE 11.0 mph17.7 kmh 30.40 in1029.5 mb 0.00 in0.0 mm 0.00 in0.0 mm 0.00 in0.0 mm
10:54 AM 49.9°F9.9°C 33.1°F0.6°C 53% Calm Calm 11.0 mph17.7 kmh 30.40 in1029.5 mb 0.00 in0.0 mm 0.00 in0.0 mm 0.00 in0.0 mm
10:59 AM 50.2°F10.1°C 33.3°F0.7°C 53% 5.0 mph NE8.0 kmh NE 11.0 mph17.7 kmh 30.40 in1029.5 mb 0.00 in0.0 mm 0.00 in0.0 mm 0.00 in0.0 mm
11:04 AM 50.8°F10.4°C 33.4°F0.8°C 52% 2.0 mph 3.2 kmh 12.0 mph19.3 kmh 30.40 in1029.5 mb 0.00 in0.0 mm 0.00 in0.0 mm 0.00 in0.0 mm
11:09 AM 52.4°F11.3°C 35.4°F1.9°C 53% 1.0 mph ENE1.6 kmh ENE 12.0 mph19.3 kmh 30.40 in1029.5 mb 0.00 in0.0 mm 0.00 in0.0 mm 0.00 in0.0 mm
11:14 AM 52.6°F11.4°C 34.0°F1.1°C 50% 7.0 mph NNE11.3 kmh NNE 12.0 mph19.3 kmh 30.40 in1029.5 mb 0.00 in0.0 mm 0.00 in0.0 mm 0.00 in0.0 mm
11:19 AM 51.8°F11.0°C 33.8°F1.0°C 51% 5.0 mph NNE8.0 kmh NNE 12.0 mph19.3 kmh 30.40 in1029.5 mb 0.00 in0.0 mm 0.00 in0.0 mm 0.00 in0.0 mm
11:24 AM 51.8°F11.0°C 33.8°F1.0°C 51% 4.0 mph NE6.4 kmh NE 12.0 mph19.3 kmh 30.40 in1029.5 mb 0.00 in0.0 mm 0.00 in0.0 mm 0.00 in0.0 mm
11:29 AM 52.2°F11.2°C 34.7°F1.5°C 52% 6.0 mph NE9.7 kmh NE 12.0 mph19.3 kmh 30.40 in1029.5 mb 0.00 in0.0 mm 0.00 in0.0 mm 0.00 in0.0 mm
11:34 AM 52.8°F11.6°C 35.7°F2.1°C 53% 8.0 mph NE12.9 kmh NE 12.0 mph19.3 kmh 30.40 in1029.5 mb 0.00 in0.0 mm 0.00 in0.0 mm 0.00 in0.0 mm
11:39 AM 52.3°F11.3°C 34.8°F1.6°C 52% 10.0 mph ENE16.1 kmh ENE 14.0 mph22.5 kmh 30.40 in1029.5 mb 0.00 in0.0 mm 0.00 in0.0 mm 0.00 in0.0 mm
11:44 AM 51.7°F10.9°C 33.7°F0.9°C 51% 11.0 mph ENE17.7 kmh ENE 17.0 mph27.4 kmh 30.40 in1029.5 mb 0.00 in0.0 mm 0.00 in0.0 mm 0.00 in0.0 mm
11:49 AM 52.3°F11.3°C 34.8°F1.6°C 52% 10.0 mph NE16.1 kmh NE 17.0 mph27.4 kmh 30.40 in1029.5 mb 0.00 in0.0 mm 0.00 in0.0 mm 0.00 in0.0 mm
11:54 AM 52.8°F11.6°C 36.2°F2.3°C 54% 9.0 mph ENE14.5 kmh ENE 17.0 mph27.4 kmh 30.40 in1029.5 mb 0.00 in0.0 mm 0.00 in0.0 mm 0.00 in0.0 mm
11:59 AM 53.7°F12.1°C 36.1°F2.3°C 52% 8.0 mph ENE12.9 kmh ENE 17.0 mph27.4 kmh 30.40 in1029.5 mb 0.00 in0.0 mm 0.00 in0.0 mm 0.00 in0.0 mm
12:04 PM 52.9°F11.6°C 33.8°F1.0°C 49% 8.0 mph NE12.9 kmh NE 12.0 mph19.3 kmh 30.39 in1029.1 mb 0.00 in0.0 mm 0.00 in0.0 mm 0.00 in0.0 mm
12:09 PM 52.1°F11.2°C 34.1°F1.2°C 51% 5.0 mph ENE8.0 kmh ENE 15.0 mph24.1 kmh 30.39 in1029.1 mb 0.00 in0.0 mm 0.00 in0.0 mm 0.00 in0.0 mm
12:14 PM 52.1°F11.2°C 34.1°F1.2°C 51% Calm Calm 15.0 mph24.1 kmh 30.39 in1029.1 mb 0.00 in0.0 mm 0.00 in0.0 mm 0.00 in0.0 mm
12:19 PM 53.3°F11.8°C 35.2°F1.8°C 51% 7.0 mph NE11.3 kmh NE 15.0 mph24.1 kmh 30.39 in1029.1 mb 0.00 in0.0 mm 0.00 in0.0 mm 0.00 in0.0 mm
12:24 PM 53.7°F12.1°C 35.0°F1.7°C 50% 8.0 mph NE12.9 kmh NE 15.0 mph24.1 kmh 30.39 in1029.1 mb 0.00 in0.0 mm 0.00 in0.0 mm 0.00 in0.0 mm
12:29 PM 53.8°F12.1°C 35.1°F1.7°C 50% Calm Calm 14.0 mph22.5 kmh 30.39 in1029.1 mb 0.00 in0.0 mm 0.00 in0.0 mm 0.00 in0.0 mm
12:34 PM 53.2°F11.8°C 34.0°F1.1°C 49% 9.0 mph NE14.5 kmh NE 14.0 mph22.5 kmh 30.39 in1029.1 mb 0.00 in0.0 mm 0.00 in0.0 mm 0.00 in0.0 mm
12:39 PM 52.7°F11.5°C 34.6°F1.4°C 51% 9.0 mph NE14.5 kmh NE 14.0 mph22.5 kmh 30.39 in1029.1 mb 0.00 in0.0 mm 0.00 in0.0 mm 0.00 in0.0 mm
12:44 PM 52.9°F11.6°C 33.2°F0.7°C 48% 6.0 mph NE9.7 kmh NE 14.0 mph22.5 kmh 30.39 in1029.1 mb 0.00 in0.0 mm 0.00 in0.0 mm 0.00 in0.0 mm
12:49 PM 52.7°F11.5°C 34.6°F1.4°C 51% 5.0 mph NE8.0 kmh NE 13.0 mph20.9 kmh 30.39 in1029.1 mb 0.00 in0.0 mm 0.00 in0.0 mm 0.00 in0.0 mm
12:54 PM 53.0°F11.7°C 33.3°F0.7°C 48% 8.0 mph ENE12.9 kmh ENE 13.0 mph20.9 kmh 30.39 in1029.1 mb 0.00 in0.0 mm 0.00 in0.0 mm 0.00 in0.0 mm
12:59 PM 52.7°F11.5°C 33.6°F0.9°C 49% 5.0 mph NE8.0 kmh NE 12.0 mph19.3 kmh 30.39 in1029.1 mb 0.00 in0.0 mm 0.00 in0.0 mm 0.00 in0.0 mm
01:04 PM 53.1°F11.7°C 34.5°F1.4°C 50% 8.0 mph NE12.9 kmh NE 13.0 mph20.9 kmh 30.38 in1028.8 mb 0.00 in0.0 mm 0.00 in0.0 mm 0.00 in0.0 mm
01:09 PM 53.4°F11.9°C 35.8°F2.1°C 52% 5.0 mph NE8.0 kmh NE 13.0 mph20.9 kmh 30.38 in1028.8 mb 0.00 in0.0 mm 0.00 in0.0 mm 0.00 in0.0 mm
01:14 PM 54.1°F12.3°C 35.9°F2.2°C 51% 5.0 mph NNE8.0 kmh NNE 13.0 mph20.9 kmh 30.38 in1028.8 mb 0.00 in0.0 mm 0.00 in0.0 mm 0.00 in0.0 mm
01:19 PM 54.1°F12.3°C 34.9°F1.6°C 49% 7.0 mph NE11.3 kmh NE 13.0 mph20.9 kmh 30.38 in1028.8 mb 0.00 in0.0 mm 0.00 in0.0 mm 0.00 in0.0 mm
01:24 PM 53.6°F12.0°C 33.9°F1.1°C 48% 11.0 mph ENE17.7 kmh ENE 14.0 mph22.5 kmh 30.38 in1028.8 mb 0.00 in0.0 mm 0.00 in0.0 mm 0.00 in0.0 mm
01:29 PM 52.8°F11.6°C 33.7°F0.9°C 49% 10.0 mph NE16.1 kmh NE 15.0 mph24.1 kmh 30.38 in1028.8 mb 0.00 in0.0 mm 0.00 in0.0 mm 0.00 in0.0 mm
01:34 PM 52.7°F11.5°C 33.6°F0.9°C 49% 7.0 mph ENE11.3 kmh ENE 17.0 mph27.4 kmh 30.37 in1028.4 mb 0.00 in0.0 mm 0.00 in0.0 mm 0.00 in0.0 mm
01:39 PM 53.0°F11.7°C 34.9°F1.6°C 51% 6.0 mph NE9.7 kmh NE 17.0 mph27.4 kmh 30.37 in1028.4 mb 0.00 in0.0 mm 0.00 in0.0 mm 0.00 in0.0 mm
01:44 PM 53.4°F11.9°C 35.3°F1.8°C 51% 9.0 mph NE14.5 kmh NE 17.0 mph27.4 kmh 30.37 in1028.4 mb 0.00 in0.0 mm 0.00 in0.0 mm 0.00 in0.0 mm
01:49 PM 53.4°F11.9°C 34.2°F1.2°C 49% 11.0 mph NE17.7 kmh NE 17.0 mph27.4 kmh 30.37 in1028.4 mb 0.00 in0.0 mm 0.00 in0.0 mm 0.00 in0.0 mm
01:54 PM 53.3°F11.8°C 34.7°F1.5°C 50% 4.0 mph ENE6.4 kmh ENE 15.0 mph24.1 kmh 30.37 in1028.4 mb 0.00 in0.0 mm 0.00 in0.0 mm 0.00 in0.0 mm
01:59 PM 54.0°F12.2°C 35.3°F1.8°C 50% 4.0 mph NNE6.4 kmh NNE 15.0 mph24.1 kmh 30.37 in1028.4 mb 0.00 in0.0 mm 0.00 in0.0 mm 0.00 in0.0 mm
02:04 PM 54.2°F12.3°C 35.0°F1.7°C 49% 2.0 mph ENE3.2 kmh ENE 13.0 mph20.9 kmh 30.37 in1028.4 mb 0.00 in0.0 mm 0.00 in0.0 mm 0.00 in0.0 mm
02:09 PM 54.2°F12.3°C 35.0°F1.7°C 49% 7.0 mph NE11.3 kmh NE 13.0 mph20.9 kmh 30.37 in1028.4 mb 0.00 in0.0 mm 0.00 in0.0 mm 0.00 in0.0 mm
02:14 PM 54.4°F12.4°C 34.6°F1.4°C 48% 3.0 mph NE4.8 kmh NE 13.0 mph20.9 kmh 30.37 in1028.4 mb 0.00 in0.0 mm 0.00 in0.0 mm 0.00 in0.0 mm
02:19 PM 54.2°F12.3°C 34.4°F1.3°C 48% 6.0 mph NE9.7 kmh NE 13.0 mph20.9 kmh 30.37 in1028.4 mb 0.00 in0.0 mm 0.00 in0.0 mm 0.00 in0.0 mm
02:24 PM 54.2°F12.3°C 35.5°F1.9°C 50% 7.0 mph NE11.3 kmh NE 16.0 mph25.7 kmh 30.37 in1028.4 mb 0.00 in0.0 mm 0.00 in0.0 mm 0.00 in0.0 mm
02:29 PM 54.4°F12.4°C 34.6°F1.4°C 48% 12.0 mph ENE19.3 kmh ENE 17.0 mph27.4 kmh 30.36 in1028.1 mb 0.00 in0.0 mm 0.00 in0.0 mm 0.00 in0.0 mm
02:34 PM 54.0°F12.2°C 33.1°F0.6°C 46% 8.0 mph NE12.9 kmh NE 17.0 mph27.4 kmh 30.36 in1028.1 mb 0.00 in0.0 mm 0.00 in0.0 mm 0.00 in0.0 mm
02:39 PM 54.1°F12.3°C 34.3°F1.3°C 48% 9.0 mph NE14.5 kmh NE 17.0 mph27.4 kmh 30.36 in1028.1 mb 0.00 in0.0 mm 0.00 in0.0 mm 0.00 in0.0 mm
02:44 PM 54.1°F12.3°C 33.2°F0.7°C 46% 13.0 mph ENE20.9 kmh ENE 21.0 mph33.8 kmh 30.36 in1028.1 mb 0.00 in0.0 mm 0.00 in0.0 mm 0.00 in0.0 mm
02:49 PM 53.8°F12.1°C 32.9°F0.5°C 46% 11.0 mph NE17.7 kmh NE 21.0 mph33.8 kmh 30.36 in1028.1 mb 0.00 in0.0 mm 0.00 in0.0 mm 0.00 in0.0 mm
02:54 PM 53.7°F12.1°C 32.9°F0.5°C 46% 7.0 mph ENE11.3 kmh ENE 21.0 mph33.8 kmh 30.36 in1028.1 mb 0.00 in0.0 mm 0.00 in0.0 mm 0.00 in0.0 mm
02:59 PM 53.4°F11.9°C 32.0°F0.0°C 45% 12.0 mph NE19.3 kmh NE 21.0 mph33.8 kmh 30.36 in1028.1 mb 0.00 in0.0 mm 0.00 in0.0 mm 0.00 in0.0 mm
03:04 PM 52.8°F11.6°C 32.0°F0.0°C 46% 11.0 mph NE17.7 kmh NE 20.0 mph32.2 kmh 30.36 in1028.1 mb 0.00 in0.0 mm 0.00 in0.0 mm 0.00 in0.0 mm
03:09 PM 53.0°F11.7°C 32.2°F0.1°C 46% 9.0 mph ENE14.5 kmh ENE 20.0 mph32.2 kmh 30.36 in1028.1 mb 0.00 in0.0 mm 0.00 in0.0 mm 0.00 in0.0 mm
03:14 PM 52.9°F11.6°C 31.0°F-0.6°C 44% 11.0 mph NE17.7 kmh NE 21.0 mph33.8 kmh 30.36 in1028.1 mb 0.00 in0.0 mm 0.00 in0.0 mm 0.00 in0.0 mm
03:19 PM 53.2°F11.8°C 31.8°F-0.1°C 45% 10.0 mph NE16.1 kmh NE 21.0 mph33.8 kmh 30.36 in1028.1 mb 0.00 in0.0 mm 0.00 in0.0 mm 0.00 in0.0 mm
03:24 PM 53.9°F12.2°C 31.9°F-0.1°C 44% 12.0 mph ENE19.3 kmh ENE 21.0 mph33.8 kmh 30.35 in1027.8 mb 0.00 in0.0 mm 0.00 in0.0 mm 0.00 in0.0 mm
03:29 PM 54.2°F12.3°C 31.6°F-0.2°C 43% 13.0 mph NE20.9 kmh NE 21.0 mph33.8 kmh 30.35 in1027.8 mb 0.00 in0.0 mm 0.00 in0.0 mm 0.00 in0.0 mm
03:34 PM 53.9°F12.2°C 31.9°F-0.1°C 44% 11.0 mph ENE17.7 kmh ENE 20.0 mph32.2 kmh 30.35 in1027.8 mb 0.00 in0.0 mm 0.00 in0.0 mm 0.00 in0.0 mm
03:39 PM 54.3°F12.4°C 32.2°F0.1°C 44% 18.0 mph ENE29.0 kmh ENE 21.0 mph33.8 kmh 30.35 in1027.8 mb 0.00 in0.0 mm 0.00 in0.0 mm 0.00 in0.0 mm
03:44 PM 53.9°F12.2°C 31.9°F-0.1°C 44% 7.0 mph NNE11.3 kmh NNE 23.0 mph37.0 kmh 30.34 in1027.4 mb 0.00 in0.0 mm 0.00 in0.0 mm 0.00 in0.0 mm
03:49 PM 53.9°F12.2°C 31.3°F-0.4°C 43% 12.0 mph NE19.3 kmh NE 23.0 mph37.0 kmh 30.34 in1027.4 mb 0.00 in0.0 mm 0.00 in0.0 mm 0.00 in0.0 mm
03:54 PM 53.6°F12.0°C 31.0°F-0.6°C 43% 12.0 mph ENE19.3 kmh ENE 23.0 mph37.0 kmh 30.34 in1027.4 mb 0.00 in0.0 mm 0.00 in0.0 mm 0.00 in0.0 mm
03:59 PM 54.0°F12.2°C 32.0°F0.0°C 44% 12.0 mph ENE19.3 kmh ENE 23.0 mph37.0 kmh 30.34 in1027.4 mb 0.00 in0.0 mm 0.00 in0.0 mm 0.00 in0.0 mm
04:04 PM 53.6°F12.0°C 31.0°F-0.6°C 43% 17.0 mph ENE27.4 kmh ENE 21.0 mph33.8 kmh 30.34 in1027.4 mb 0.00 in0.0 mm 0.00 in0.0 mm 0.00 in0.0 mm
04:09 PM 53.2°F11.8°C 30.7°F-0.7°C 43% 19.0 mph NE30.6 kmh NE 21.0 mph33.8 kmh 30.34 in1027.4 mb 0.00 in0.0 mm 0.00 in0.0 mm 0.00 in0.0 mm
04:14 PM 52.9°F11.6°C 29.8°F-1.2°C 42% 9.0 mph NE14.5 kmh NE 25.0 mph40.2 kmh 30.33 in1027.1 mb 0.00 in0.0 mm 0.00 in0.0 mm 0.00 in0.0 mm
04:19 PM 52.8°F11.6°C 30.3°F-0.9°C 43% 14.0 mph ENE22.5 kmh ENE 25.0 mph40.2 kmh 30.33 in1027.1 mb 0.00 in0.0 mm 0.00 in0.0 mm 0.00 in0.0 mm
04:24 PM 53.0°F11.7°C 29.9°F-1.2°C 42% 10.0 mph NE16.1 kmh NE 25.0 mph40.2 kmh 30.33 in1027.1 mb 0.00 in0.0 mm 0.00 in0.0 mm 0.00 in0.0 mm
04:29 PM 52.7°F11.5°C 29.6°F-1.3°C 42% 11.0 mph NE17.7 kmh NE 25.0 mph40.2 kmh 30.33 in1027.1 mb 0.00 in0.0 mm 0.00 in0.0 mm 0.00 in0.0 mm
04:34 PM 52.7°F11.5°C 29.6°F-1.3°C 42% 7.0 mph ENE11.3 kmh ENE 21.0 mph33.8 kmh 30.33 in1027.1 mb 0.00 in0.0 mm 0.00 in0.0 mm 0.00 in0.0 mm
04:39 PM 52.7°F11.5°C 29.6°F-1.3°C 42% 11.0 mph NE17.7 kmh NE 22.0 mph35.4 kmh 30.33 in1027.1 mb 0.00 in0.0 mm 0.00 in0.0 mm 0.00 in0.0 mm
04:44 PM 52.8°F11.6°C 30.3°F-0.9°C 43% 10.0 mph NE16.1 kmh NE 22.0 mph35.4 kmh 30.33 in1027.1 mb 0.00 in0.0 mm 0.00 in0.0 mm 0.00 in0.0 mm
04:49 PM 52.7°F11.5°C 29.6°F-1.3°C 42% 14.0 mph NE22.5 kmh NE 22.0 mph35.4 kmh 30.33 in1027.1 mb 0.00 in0.0 mm 0.00 in0.0 mm 0.00 in0.0 mm
04:54 PM 52.5°F11.4°C 29.4°F-1.4°C 42% 14.0 mph NE22.5 kmh NE 22.0 mph35.4 kmh 30.32 in1026.8 mb 0.00 in0.0 mm 0.00 in0.0 mm 0.00 in0.0 mm
04:59 PM 52.2°F11.2°C 28.5°F-1.9°C 41% 13.0 mph NE20.9 kmh NE 22.0 mph35.4 kmh 30.32 in1026.8 mb 0.00 in0.0 mm 0.00 in0.0 mm 0.00 in0.0 mm
05:04 PM 52.3°F11.3°C 29.2°F-1.6°C 42% 3.0 mph N4.8 kmh N 22.0 mph35.4 kmh 30.32 in1026.8 mb 0.00 in0.0 mm 0.00 in0.0 mm 0.00 in0.0 mm
05:09 PM 52.4°F11.3°C 28.7°F-1.8°C 41% 4.0 mph NE6.4 kmh NE 22.0 mph35.4 kmh 30.32 in1026.8 mb 0.00 in0.0 mm 0.00 in0.0 mm 0.00 in0.0 mm
05:14 PM 52.4°F11.3°C 29.3°F-1.5°C 42% 12.0 mph NNE19.3 kmh NNE 22.0 mph35.4 kmh 30.32 in1026.8 mb 0.00 in0.0 mm 0.00 in0.0 mm 0.00 in0.0 mm
05:19 PM 52.4°F11.3°C 28.1°F-2.2°C 40% 17.0 mph NE27.4 kmh NE 17.0 mph27.4 kmh 30.32 in1026.8 mb 0.00 in0.0 mm 0.00 in0.0 mm 0.00 in0.0 mm
05:24 PM 52.2°F11.2°C 27.9°F-2.3°C 40% 9.0 mph NE14.5 kmh NE 19.0 mph30.6 kmh 30.32 in1026.8 mb 0.00 in0.0 mm 0.00 in0.0 mm 0.00 in0.0 mm
05:29 PM 52.2°F11.2°C 27.9°F-2.3°C 40% 10.0 mph NE16.1 kmh NE 19.0 mph30.6 kmh 30.32 in1026.8 mb 0.00 in0.0 mm 0.00 in0.0 mm 0.00 in0.0 mm
05:34 PM 52.0°F11.1°C 28.4°F-2.0°C 41% 9.0 mph NE14.5 kmh NE 19.0 mph30.6 kmh 30.32 in1026.8 mb 0.00 in0.0 mm 0.00 in0.0 mm 0.00 in0.0 mm
05:39 PM 52.0°F11.1°C 27.7°F-2.4°C 40% 7.0 mph NE11.3 kmh NE 19.0 mph30.6 kmh 30.32 in1026.8 mb 0.00 in0.0 mm 0.00 in0.0 mm 0.00 in0.0 mm
05:44 PM 52.0°F11.1°C 28.4°F-2.0°C 41% 10.0 mph NE16.1 kmh NE 17.0 mph27.4 kmh 30.32 in1026.8 mb 0.00 in0.0 mm 0.00 in0.0 mm 0.00 in0.0 mm
05:49 PM 52.0°F11.1°C 27.7°F-2.4°C 40% 11.0 mph NE17.7 kmh NE 17.0 mph27.4 kmh 30.32 in1026.8 mb 0.00 in0.0 mm 0.00 in0.0 mm 0.00 in0.0 mm
05:54 PM 51.9°F11.1°C 27.0°F-2.8°C 39% 15.0 mph NE24.1 kmh NE 17.0 mph27.4 kmh 30.32 in1026.8 mb 0.00 in0.0 mm 0.00 in0.0 mm 0.00 in0.0 mm
05:59 PM 51.9°F11.1°C 27.6°F-2.4°C 40% 9.0 mph NE14.5 kmh NE 20.0 mph32.2 kmh 30.32 in1026.8 mb 0.00 in0.0 mm 0.00 in0.0 mm 0.00 in0.0 mm
06:04 PM 51.9°F11.1°C 27.0°F-2.8°C 39% 12.0 mph NE19.3 kmh NE 20.0 mph32.2 kmh 30.32 in1026.8 mb 0.00 in0.0 mm 0.00 in0.0 mm 0.00 in0.0 mm
06:09 PM 51.9°F11.1°C 27.0°F-2.8°C 39% 8.0 mph NE12.9 kmh NE 20.0 mph32.2 kmh 30.31 in1026.4 mb 0.00 in0.0 mm 0.00 in0.0 mm 0.00 in0.0 mm
06:14 PM 51.8°F11.0°C 26.2°F-3.2°C 38% 7.0 mph NE11.3 kmh NE 20.0 mph32.2 kmh 30.31 in1026.4 mb 0.00 in0.0 mm 0.00 in0.0 mm 0.00 in0.0 mm
06:19 PM 51.6°F10.9°C 26.7°F-2.9°C 39% 7.0 mph NE11.3 kmh NE 21.0 mph33.8 kmh 30.31 in1026.4 mb 0.00 in0.0 mm 0.00 in0.0 mm 0.00 in0.0 mm
06:24 PM 51.4°F10.8°C 26.5°F-3.1°C 39% 9.0 mph NE14.5 kmh NE 21.0 mph33.8 kmh 30.31 in1026.4 mb 0.00 in0.0 mm 0.00 in0.0 mm 0.00 in0.0 mm
06:29 PM 51.2°F10.7°C 26.4°F-3.1°C 39% 14.0 mph ENE22.5 kmh ENE 21.0 mph33.8 kmh 30.31 in1026.4 mb 0.00 in0.0 mm 0.00 in0.0 mm 0.00 in0.0 mm
06:34 PM 51.1°F10.6°C 25.6°F-3.6°C 38% 11.0 mph ENE17.7 kmh ENE 21.0 mph33.8 kmh 30.31 in1026.4 mb 0.00 in0.0 mm 0.00 in0.0 mm 0.00 in0.0 mm
06:39 PM 51.1°F10.6°C 26.3°F-3.2°C 39% 8.0 mph NE12.9 kmh NE 20.0 mph32.2 kmh 30.31 in1026.4 mb 0.00 in0.0 mm 0.00 in0.0 mm 0.00 in0.0 mm
06:44 PM 51.0°F10.6°C 26.2°F-3.2°C 39% 10.0 mph NE16.1 kmh NE 20.0 mph32.2 kmh 30.30 in1026.1 mb 0.00 in0.0 mm 0.00 in0.0 mm 0.00 in0.0 mm
06:49 PM 50.9°F10.5°C 26.7°F-2.9°C 40% 6.0 mph NNE9.7 kmh NNE 20.0 mph32.2 kmh 30.30 in1026.1 mb 0.00 in0.0 mm 0.00 in0.0 mm 0.00 in0.0 mm
06:54 PM 50.9°F10.5°C 26.1°F-3.3°C 39% 11.0 mph ENE17.7 kmh ENE 21.0 mph33.8 kmh 30.30 in1026.1 mb 0.00 in0.0 mm 0.00 in0.0 mm 0.00 in0.0 mm
06:59 PM 50.8°F10.4°C 26.0°F-3.3°C 39% 13.0 mph NE20.9 kmh NE 21.0 mph33.8 kmh 30.30 in1026.1 mb 0.00 in0.0 mm 0.00 in0.0 mm 0.00 in0.0 mm
07:04 PM 50.7°F10.4°C 26.6°F-3.0°C 40% 12.0 mph ENE19.3 kmh ENE 21.0 mph33.8 kmh 30.29 in1025.7 mb 0.00 in0.0 mm 0.00 in0.0 mm 0.00 in0.0 mm
07:09 PM 50.7°F10.4°C 26.6°F-3.0°C 40% 17.0 mph ENE27.4 kmh ENE 21.0 mph33.8 kmh 30.29 in1025.7 mb 0.00 in0.0 mm 0.00 in0.0 mm 0.00 in0.0 mm
07:14 PM 50.7°F10.4°C 26.6°F-3.0°C 40% 9.0 mph ENE14.5 kmh ENE 21.0 mph33.8 kmh 30.29 in1025.7 mb 0.00 in0.0 mm 0.00 in0.0 mm 0.00 in0.0 mm
07:19 PM 50.6°F10.3°C 25.8°F-3.4°C 39% 11.0 mph ENE17.7 kmh ENE 21.0 mph33.8 kmh 30.29 in1025.7 mb 0.00 in0.0 mm 0.00 in0.0 mm 0.00 in0.0 mm
07:24 PM 50.6°F10.3°C 26.5°F-3.1°C 40% 13.0 mph NE20.9 kmh NE 21.0 mph33.8 kmh 30.29 in1025.7 mb 0.00 in0.0 mm 0.00 in0.0 mm 0.00 in0.0 mm
07:29 PM 50.4°F10.2°C 26.3°F-3.2°C 40% 13.0 mph NE20.9 kmh NE 18.0 mph29.0 kmh 30.29 in1025.7 mb 0.00 in0.0 mm 0.00 in0.0 mm 0.00 in0.0 mm
07:34 PM 50.4°F10.2°C 26.3°F-3.2°C 40% 9.0 mph ENE14.5 kmh ENE 18.0 mph29.0 kmh 30.29 in1025.7 mb 0.00 in0.0 mm 0.00 in0.0 mm 0.00 in0.0 mm
07:39 PM 50.3°F10.2°C 26.2°F-3.2°C 40% 10.0 mph ENE16.1 kmh ENE 16.0 mph25.7 kmh 30.29 in1025.7 mb 0.00 in0.0 mm 0.00 in0.0 mm 0.00 in0.0 mm
07:44 PM 50.2°F10.1°C 26.1°F-3.3°C 40% 10.0 mph ENE16.1 kmh ENE 17.0 mph27.4 kmh 30.29 in1025.7 mb 0.00 in0.0 mm 0.00 in0.0 mm 0.00 in0.0 mm
07:49 PM 50.1°F10.1°C 26.0°F-3.3°C 40% 8.0 mph NE12.9 kmh NE 17.0 mph27.4 kmh 30.29 in1025.7 mb 0.00 in0.0 mm 0.00 in0.0 mm 0.00 in0.0 mm
07:54 PM 49.9°F9.9°C 26.5°F-3.1°C 41% 9.0 mph NE14.5 kmh NE 17.0 mph27.4 kmh 30.28 in1025.4 mb 0.00 in0.0 mm 0.00 in0.0 mm 0.00 in0.0 mm
07:59 PM 49.7°F9.8°C 26.3°F-3.2°C 41% 7.0 mph ENE11.3 kmh ENE 17.0 mph27.4 kmh 30.28 in1025.4 mb 0.00 in0.0 mm 0.00 in0.0 mm 0.00 in0.0 mm
08:04 PM 49.5°F9.7°C 26.1°F-3.3°C 41% 10.0 mph ENE16.1 kmh ENE 15.0 mph24.1 kmh 30.29 in1025.7 mb 0.00 in0.0 mm 0.00 in0.0 mm 0.00 in0.0 mm
08:09 PM 49.5°F9.7°C 26.1°F-3.3°C 41% 8.0 mph ENE12.9 kmh ENE 15.0 mph24.1 kmh 30.29 in1025.7 mb 0.00 in0.0 mm 0.00 in0.0 mm 0.00 in0.0 mm
08:14 PM 49.4°F9.7°C 26.6°F-3.0°C 42% 5.0 mph NE8.0 kmh NE 14.0 mph22.5 kmh 30.29 in1025.7 mb 0.00 in0.0 mm 0.00 in0.0 mm 0.00 in0.0 mm
08:19 PM 49.3°F9.6°C 26.6°F-3.0°C 42% 7.0 mph NE11.3 kmh NE 14.0 mph22.5 kmh 30.29 in1025.7 mb 0.00 in0.0 mm 0.00 in0.0 mm 0.00 in0.0 mm
08:24 PM 49.1°F9.5°C 27.0°F-2.8°C 43% 8.0 mph NE12.9 kmh NE 14.0 mph22.5 kmh 30.29 in1025.7 mb 0.00 in0.0 mm 0.00 in0.0 mm 0.00 in0.0 mm
08:29 PM 48.9°F9.4°C 26.8°F-2.9°C 43% 7.0 mph NE11.3 kmh NE 15.0 mph24.1 kmh 30.29 in1025.7 mb 0.00 in0.0 mm 0.00 in0.0 mm 0.00 in0.0 mm
08:34 PM 48.7°F9.3°C 27.2°F-2.7°C 44% 9.0 mph E14.5 kmh E 15.0 mph24.1 kmh 30.29 in1025.7 mb 0.00 in0.0 mm 0.00 in0.0 mm 0.00 in0.0 mm
08:39 PM 48.5°F9.2°C 27.6°F-2.4°C 45% 9.0 mph NE14.5 kmh NE 15.0 mph24.1 kmh 30.29 in1025.7 mb 0.00 in0.0 mm 0.00 in0.0 mm 0.00 in0.0 mm
08:44 PM 48.4°F9.1°C 27.5°F-2.5°C 45% 10.0 mph ENE16.1 kmh ENE 15.0 mph24.1 kmh 30.29 in1025.7 mb 0.00 in0.0 mm 0.00 in0.0 mm 0.00 in0.0 mm
08:49 PM 48.2°F9.0°C 27.9°F-2.3°C 46% 9.0 mph NE14.5 kmh NE 14.0 mph22.5 kmh 30.29 in1025.7 mb 0.00 in0.0 mm 0.00 in0.0 mm 0.00 in0.0 mm
08:54 PM 48.0°F8.9°C 27.7°F-2.4°C 46% 5.0 mph NE8.0 kmh NE 14.0 mph22.5 kmh 30.29 in1025.7 mb 0.00 in0.0 mm 0.00 in0.0 mm 0.00 in0.0 mm
08:59 PM 47.8°F8.8°C 27.5°F-2.5°C 46% 9.0 mph ENE14.5 kmh ENE 13.0 mph20.9 kmh 30.29 in1025.7 mb 0.00 in0.0 mm 0.00 in0.0 mm 0.00 in0.0 mm
09:04 PM 47.7°F8.7°C 28.0°F-2.2°C 47% 7.0 mph ENE11.3 kmh ENE 13.0 mph20.9 kmh 30.29 in1025.7 mb 0.00 in0.0 mm 0.00 in0.0 mm 0.00 in0.0 mm
09:09 PM 47.6°F8.7°C 27.9°F-2.3°C 47% 9.0 mph ENE14.5 kmh ENE 12.0 mph19.3 kmh 30.29 in1025.7 mb 0.00 in0.0 mm 0.00 in0.0 mm 0.00 in0.0 mm
09:14 PM 47.5°F8.6°C 28.3°F-2.1°C 48% 7.0 mph NE11.3 kmh NE 13.0 mph20.9 kmh 30.29 in1025.7 mb 0.00 in0.0 mm 0.00 in0.0 mm 0.00 in0.0 mm
09:19 PM 47.3°F8.5°C 28.1°F-2.2°C 48% 8.0 mph ENE12.9 kmh ENE 13.0 mph20.9 kmh 30.30 in1026.1 mb 0.00 in0.0 mm 0.00 in0.0 mm 0.00 in0.0 mm
09:24 PM 47.2°F8.4°C 28.6°F-1.9°C 49% 6.0 mph NE9.7 kmh NE 13.0 mph20.9 kmh 30.30 in1026.1 mb 0.00 in0.0 mm 0.00 in0.0 mm 0.00 in0.0 mm
09:29 PM 47.1°F8.4°C 28.5°F-1.9°C 49% 7.0 mph ENE11.3 kmh ENE 13.0 mph20.9 kmh 30.30 in1026.1 mb 0.00 in0.0 mm 0.00 in0.0 mm 0.00 in0.0 mm
09:34 PM 47.0°F8.3°C 28.9°F-1.7°C 50% 6.0 mph NE9.7 kmh NE 9.0 mph14.5 kmh 30.30 in1026.1 mb 0.00 in0.0 mm 0.00 in0.0 mm 0.00 in0.0 mm
09:39 PM 46.8°F8.2°C 28.7°F-1.8°C 50% 5.0 mph NE8.0 kmh NE 10.0 mph16.1 kmh 30.30 in1026.1 mb 0.00 in0.0 mm 0.00 in0.0 mm 0.00 in0.0 mm
09:44 PM 46.7°F8.2°C 29.1°F-1.6°C 51% 5.0 mph ENE8.0 kmh ENE 10.0 mph16.1 kmh 30.30 in1026.1 mb 0.00 in0.0 mm 0.00 in0.0 mm 0.00 in0.0 mm
09:49 PM 46.6°F8.1°C 29.0°F-1.7°C 51% 5.0 mph NE8.0 kmh NE 10.0 mph16.1 kmh 30.30 in1026.1 mb 0.00 in0.0 mm 0.00 in0.0 mm 0.00 in0.0 mm
09:54 PM 46.5°F8.1°C 28.9°F-1.7°C 51% 6.0 mph NE9.7 kmh NE 10.0 mph16.1 kmh 30.30 in1026.1 mb 0.00 in0.0 mm 0.00 in0.0 mm 0.00 in0.0 mm
09:59 PM 46.3°F7.9°C 29.2°F-1.6°C 52% 5.0 mph NE8.0 kmh NE 9.0 mph14.5 kmh 30.30 in1026.1 mb 0.00 in0.0 mm 0.00 in0.0 mm 0.00 in0.0 mm
10:04 PM 46.2°F7.9°C 29.6°F-1.3°C 53% 8.0 mph ENE12.9 kmh ENE 9.0 mph14.5 kmh 30.30 in1026.1 mb 0.00 in0.0 mm 0.00 in0.0 mm 0.00 in0.0 mm
10:09 PM 46.1°F7.8°C 29.5°F-1.4°C 53% 7.0 mph ENE11.3 kmh ENE 10.0 mph16.1 kmh 30.30 in1026.1 mb 0.00 in0.0 mm 0.00 in0.0 mm 0.00 in0.0 mm
10:14 PM 46.1°F7.8°C 29.5°F-1.4°C 53% 8.0 mph ENE12.9 kmh ENE 10.0 mph16.1 kmh 30.30 in1026.1 mb 0.00 in0.0 mm 0.00 in0.0 mm 0.00 in0.0 mm
10:19 PM 46.0°F7.8°C 29.5°F-1.4°C 53% 7.0 mph ENE11.3 kmh ENE 10.0 mph16.1 kmh 30.30 in1026.1 mb 0.00 in0.0 mm 0.00 in0.0 mm 0.00 in0.0 mm
10:24 PM 46.0°F7.8°C 29.5°F-1.4°C 53% 8.0 mph NE12.9 kmh NE 10.0 mph16.1 kmh 30.30 in1026.1 mb 0.00 in0.0 mm 0.00 in0.0 mm 0.00 in0.0 mm
10:29 PM 45.9°F7.7°C 29.4°F-1.4°C 53% 4.0 mph ENE6.4 kmh ENE 9.0 mph14.5 kmh 30.30 in1026.1 mb 0.00 in0.0 mm 0.00 in0.0 mm 0.00 in0.0 mm
10:34 PM 45.8°F7.7°C 29.3°F-1.5°C 53% 5.0 mph ENE8.0 kmh ENE 10.0 mph16.1 kmh 30.30 in1026.1 mb 0.00 in0.0 mm 0.00 in0.0 mm 0.00 in0.0 mm
10:39 PM 45.7°F7.6°C 29.2°F-1.6°C 53% 7.0 mph NE11.3 kmh NE 10.0 mph16.1 kmh 30.29 in1025.7 mb 0.00 in0.0 mm 0.00 in0.0 mm 0.00 in0.0 mm
10:44 PM 45.5°F7.5°C 29.5°F-1.4°C 54% 7.0 mph NE11.3 kmh NE 10.0 mph16.1 kmh 30.29 in1025.7 mb 0.00 in0.0 mm 0.00 in0.0 mm 0.00 in0.0 mm
10:49 PM 45.5°F7.5°C 29.0°F-1.7°C 53% 7.0 mph E11.3 kmh E 10.0 mph16.1 kmh 30.29 in1025.7 mb 0.00 in0.0 mm 0.00 in0.0 mm 0.00 in0.0 mm
10:54 PM 45.4°F7.4°C 28.9°F-1.7°C 53% 6.0 mph NE9.7 kmh NE 10.0 mph16.1 kmh 30.29 in1025.7 mb 0.00 in0.0 mm 0.00 in0.0 mm 0.00 in0.0 mm
10:59 PM 45.5°F7.5°C 29.0°F-1.7°C 53% 5.0 mph NE8.0 kmh NE 10.0 mph16.1 kmh 30.29 in1025.7 mb 0.00 in0.0 mm 0.00 in0.0 mm 0.00 in0.0 mm
11:04 PM 45.5°F7.5°C 29.0°F-1.7°C 53% 10.0 mph NE16.1 kmh NE 10.0 mph16.1 kmh 30.29 in1025.7 mb 0.00 in0.0 mm 0.00 in0.0 mm 0.00 in0.0 mm
11:09 PM 45.6°F7.6°C 28.6°F-1.9°C 52% 6.0 mph NE9.7 kmh NE 10.0 mph16.1 kmh 30.28 in1025.4 mb 0.00 in0.0 mm 0.00 in0.0 mm 0.00 in0.0 mm
11:14 PM 45.6°F7.6°C 28.6°F-1.9°C 52% 8.0 mph ENE12.9 kmh ENE 10.0 mph16.1 kmh 30.28 in1025.4 mb 0.00 in0.0 mm 0.00 in0.0 mm 0.00 in0.0 mm
11:19 PM 45.6°F7.6°C 28.6°F-1.9°C 52% 5.0 mph NE8.0 kmh NE 10.0 mph16.1 kmh 30.28 in1025.4 mb 0.00 in0.0 mm 0.00 in0.0 mm 0.00 in0.0 mm
11:24 PM 45.5°F7.5°C 28.5°F-1.9°C 52% 5.0 mph ENE8.0 kmh ENE 8.0 mph12.9 kmh 30.28 in1025.4 mb 0.00 in0.0 mm 0.00 in0.0 mm 0.00 in0.0 mm
11:29 PM 45.3°F7.4°C 28.8°F-1.8°C 53% 4.0 mph NE6.4 kmh NE 9.0 mph14.5 kmh 30.28 in1025.4 mb 0.00 in0.0 mm 0.00 in0.0 mm 0.00 in0.0 mm
11:34 PM 45.3°F7.4°C 28.8°F-1.8°C 53% 5.0 mph ENE8.0 kmh ENE 9.0 mph14.5 kmh 30.28 in1025.4 mb 0.00 in0.0 mm 0.00 in0.0 mm 0.00 in0.0 mm
11:39 PM 45.1°F7.3°C 28.6°F-1.9°C 53% 4.0 mph NE6.4 kmh NE 9.0 mph14.5 kmh 30.27 in1025.1 mb 0.00 in0.0 mm 0.00 in0.0 mm 0.00 in0.0 mm
11:44 PM 45.0°F7.2°C 28.5°F-1.9°C 53% 4.0 mph ENE6.4 kmh ENE 9.0 mph14.5 kmh 30.27 in1025.1 mb 0.00 in0.0 mm 0.00 in0.0 mm 0.00 in0.0 mm
11:49 PM 44.9°F7.2°C 28.9°F-1.7°C 54% 8.0 mph NE12.9 kmh NE 8.0 mph12.9 kmh 30.27 in1025.1 mb 0.00 in0.0 mm 0.00 in0.0 mm 0.00 in0.0 mm
11:54 PM 44.8°F7.1°C 28.8°F-1.8°C 54% 6.0 mph 9.7 kmh 8.0 mph12.9 kmh 30.27 in1025.1 mb 0.00 in0.0 mm 0.00 in0.0 mm 0.00 in0.0 mm
11:59 PM 44.6°F7.0°C 29.1°F-1.6°C 55% 5.0 mph NE8.0 kmh NE 9.0 mph14.5 kmh 30.27 in1025.1 mb 0.00 in0.0 mm 0.00 in0.0 mm 0.00 in0.0 mm